KPWM/PWM METAR and TAF weather

Enter ICAO airport designator
Station Type Date Time Source
KPWM METAR 2019/04/18 09:51 UTC NOAA

KPWM 180951Z 00000KT 10SM FEW150 SCT250 00/M03 A3025 RMK AO2 SLP243 T00001033


Station Type Date Time Source
KPWM Decoded METAR 2019/04/18 09:51 UTC NOAA

PORTLAND INTERNATIONAL JETPORT, ME, United States (KPWM) 43-39N 70-18W 15M
Apr 18, 2019 - 05:51 AM EDT / 2019.04.18 0951 UTC
Wind: Calm:0
Visibility: 10 mile(s):0
Sky conditions: partly cloudy
Temperature: 32.0 F (0.0 C)
Dew Point: 26.1 F (-3.3 C)
Relative Humidity: 78%
Pressure (altimeter): 30.25 in. Hg (1024 hPa)
ob: KPWM 180951Z 00000KT 10SM FEW150 SCT250 00/M03 A3025 RMK AO2 SLP243 T00001033
cycle: 10

Station Type Date Time Source
KPWM TAF 2019/04/18 09:03 UTC NOAA

TAF
AMD KPWM 180901Z 1809/1906 VRB03KT P6SM FEW250 WS020/24030KT
FM181600 16013G21KT P6SM OVC050
FM182000 16012G21KT 4SM -DZ OVC015
FM182300 16011KT 2SM -RA BR OVC007

Example: see airport list